Map

Track Data

SID SEASON NUMBER BASIN SUBBASIN NAME ISO_TIME NATURE LAT LON WMO_WIND WMO_PRES WMO_AGENCY TRACK_TYPE DIST2LAND LANDFALL IFLAG USA_AGENCY USA_ATCF_ID USA_LAT USA_LON USA_RECORD USA_STATUS USA_WIND USA_PRES USA_SSHS USA_R34_NE USA_R34_SE USA_R34_SW USA_R34_NW USA_R50_NE USA_R50_SE USA_R50_SW USA_R50_NW USA_R64_NE USA_R64_SE USA_R64_SW USA_R64_NW USA_POCI USA_ROCI USA_RMW USA_EYE TOKYO_LAT TOKYO_LON TOKYO_GRADE TOKYO_WIND TOKYO_PRES TOKYO_R50_DIR TOKYO_R50_LONG TOKYO_R50_SHORT TOKYO_R30_DIR TOKYO_R30_LONG TOKYO_R30_SHORT TOKYO_LAND CMA_LAT CMA_LON CMA_CAT CMA_WIND CMA_PRES HKO_LAT HKO_LON HKO_CAT HKO_WIND HKO_PRES NEWDELHI_LAT NEWDELHI_LON NEWDELHI_GRADE NEWDELHI_WIND NEWDELHI_PRES NEWDELHI_CI NEWDELHI_DP NEWDELHI_POCI REUNION_LAT REUNION_LON REUNION_TYPE REUNION_WIND REUNION_PRES REUNION_TNUM REUNION_CI REUNION_RMW REUNION_R34_NE REUNION_R34_SE REUNION_R34_SW REUNION_R34_NW REUNION_R50_NE REUNION_R50_SE REUNION_R50_SW REUNION_R50_NW REUNION_R64_NE REUNION_R64_SE REUNION_R64_SW REUNION_R64_NW BOM_LAT BOM_LON BOM_TYPE BOM_WIND BOM_PRES BOM_TNUM BOM_CI BOM_RMW BOM_R34_NE BOM_R34_SE BOM_R34_SW BOM_R34_NW BOM_R50_NE BOM_R50_SE BOM_R50_SW BOM_R50_NW BOM_R64_NE BOM_R64_SE BOM_R64_SW BOM_R64_NW BOM_ROCI BOM_POCI BOM_EYE BOM_POS_METHOD BOM_PRES_METHOD NADI_LAT NADI_LON NADI_CAT NADI_WIND NADI_PRES WELLINGTON_LAT WELLINGTON_LON WELLINGTON_WIND WELLINGTON_PRES DS824_LAT DS824_LON DS824_STAGE DS824_WIND DS824_PRES TD9636_LAT TD9636_LON TD9636_STAGE TD9636_WIND TD9636_PRES TD9635_LAT TD9635_LON TD9635_WIND TD9635_PRES TD9635_ROCI NEUMANN_LAT NEUMANN_LON NEUMANN_CLASS NEUMANN_WIND NEUMANN_PRES MLC_LAT MLC_LON MLC_CLASS MLC_WIND MLC_PRES USA_GUST BOM_GUST BOM_GUST_PER REUNION_GUST REUNION_GUST_PER USA_SEAHGT USA_SEARAD_NE USA_SEARAD_SE USA_SEARAD_SW USA_SEARAD_NW STORM_SPEED STORM_DIR
1963100S11137 1963 36 SP EA NOT_NAMED 1963-04-10 05:30:00 NR -11.0000 137.300 1000 bom main 141 141 ______O_______ -1 -11.0000 137.300 1000 3 0
1963100S11137 1963 36 SP EA NOT_NAMED 1963-04-10 06:00:00 TS -11.0214 137.292 main 141 117 ______P__O____ -1 -11.0321 137.288 -11.0000 137.300 TC 30 1000 4 197
1963100S11137 1963 36 SP EA NOT_NAMED 1963-04-10 09:00:00 TS -11.2072 137.226 main 117 109 ______P__P____ -1 -11.2238 137.220 -11.1824 137.236 TC 4 203
1963100S11137 1963 36 SP EA NOT_NAMED 1963-04-10 11:00:00 TS -11.3005 137.173 main 109 109 ______P__PO___ -1 -11.3490 137.176 -11.3026 137.195 TC -11.1000 137.100 1 3 213
1963100S11137 1963 36 SP EA NOT_NAMED 1963-04-10 12:00:00 TS -11.3178 137.158 main 109 86 O_____P__PP_O_ jtwc_sh SH461963 -11.2000 137.100 -1 -11.4103 137.155 -11.3621 137.174 TC -11.1711 137.069 1 -11.3000 137.400 TC 30 1000 3 207
1963100S11137 1963 36 SP EA NOT_NAMED 1963-04-10 15:00:00 TS -11.4760 137.087 main 86 70 P_____P__PP_P_ SH461963 -11.3950 136.998 -1 -11.5874 137.097 -11.5364 137.118 TC -11.3825 136.975 1 -11.4350 137.350 TC 30 1000 4 204
1963100S11137 1963 36 SP EA NOT_NAMED 1963-04-10 18:00:00 TS -11.6458 137.013 main 70 48 O_____P__PP_O_ jtwc_sh SH461963 -11.6000 136.900 -1 -11.7508 137.050 -11.7026 137.068 TC -11.5872 136.877 1 -11.6000 137.300 TC 30 1000 4 201
1963100S11137 1963 36 SP EA NOT_NAMED 1963-04-10 21:00:00 TS -11.8286 136.947 main 48 44 P_____P__PP_P_ SH461963 -11.8150 136.807 -1 -11.8960 137.016 -11.8580 137.028 TC -11.7803 136.773 1 -11.8075 137.250 TC 30 1000 4 201
1963100S11137 1963 36 SP EA NOT_NAMED 1963-04-10 23:00:00 TS -11.9444 136.901 main 44 33 P_____P__PO_P_ SH461963 -11.9447 136.739 -1 -11.9806 137.002 -11.9543 137.008 TC -11.9000 136.700 1 -11.9421 137.217 TC 30 1000 4 202
1963100S11137 1963 36 SP EA NOT_NAMED 1963-04-10 23:30:00 TS -11.9708 136.889 1000 bom main 33 33 P_____O__PP_P_ SH461963 -11.9734 136.720 -1 -12.0000 137.000 1000 -11.9774 137.004 TC -11.9286 136.681 1 -11.9721 137.208 TC 30 1000 3 203
1963100S11137 1963 36 SP EA NOT_NAMED 1963-04-11 00:00:00 TS -11.9959 136.877 main 33 22 O_____P__OP_O_ jtwc_sh SH461963 -12.0000 136.700 -1 -12.0187 136.998 999 -12.0000 137.000 TC 30 1000 -11.9566 136.662 1 -12.0000 137.200 TC 30 1000 3 209
1963100S11137 1963 36 SP EA NOT_NAMED 1963-04-11 03:00:00 TS -12.1209 136.794 main 22 11 P_____P__PP_P_ SH461963 -12.1225 136.550 -1 -12.1204 136.977 998 -12.1217 136.975 TC 32 999 -12.1084 136.541 1 -12.1300 137.173 TC 32 999 3 220
1963100S11137 1963 36 SP EA NOT_NAMED 1963-04-11 05:30:00 TS -12.1949 136.703 998 bom main 15 15 P_____O__PP_P_ SH461963 -12.1891 136.423 -1 -12.2000 136.900 998 -12.1911 136.919 TC 34 998 -12.2074 136.436 1 -12.1925 137.118 TC 34 998 3 233
1963100S11137 1963 36 SP EA NOT_NAMED 1963-04-11 06:00:00 TS -12.2077 136.681 main 15 0 O_____P__OP_O_ jtwc_sh SH461963 -12.2000 136.400 -1 -12.2229 136.872 998 -12.2000 136.900 TC 35 998 -12.2235 136.415 1 -12.2000 137.100 TC 35 998 3 245
1963100S11137 1963 36 SP EA NOT_NAMED 1963-04-11 08:30:00 TS -12.2609 136.557 998 bom main 0 0 P_____O__PP_P_ SH461963 -12.2695 136.315 -1 -12.3000 136.700 998 -12.2214 136.752 TC 37 996 -12.2824 136.308 1 -12.2226 136.951 TC 37 996 3 249
1963100S11137 1963 36 SP EA NOT_NAMED 1963-04-11 09:00:00 TS -12.2646 136.531 main 0 0 P_____P__PP_P_ SH461963 -12.2800 136.300 -1 -12.2944 136.666 997 -12.2212 136.717 TC 37 996 -12.2895 136.286 1 -12.2225 136.915 TC 37 996 3 271
1963100S11137 1963 36 SP EA NOT_NAMED 1963-04-11 11:00:00 TS -12.2580 136.424 main 0 0 P_____P__PO_P_ SH461963 -12.3031 136.236 -1 -12.2211 136.531 994 -12.2100 136.570 TC 39 994 -12.3000 136.200 2 -12.2110 136.769 TC 39 994 3 276
1963100S11137 1963 36 SP EA NOT_NAMED 1963-04-11 11:30:00 TS -12.2517 136.398 994 bom main 0 0 P_____O__PP_P_ SH461963 -12.3029 136.219 -1 -12.2000 136.500 994 -12.2052 136.535 TC 39 994 -12.2931 136.182 2 -12.2058 136.734 TC 39 994 3 284
1963100S11137 1963 36 SP EA NOT_NAMED 1963-04-11 12:00:00 TS -12.2448 136.373 main 0 0 O_____P__OP_O_ jtwc_sh SH461963 -12.3000 136.200 -1 -12.1851 136.471 994 -12.2000 136.500 TC 40 994 -12.2836 136.164 2 -12.2000 136.700 TC 40 994 3 295
1963100S11137 1963 36 SP EA NOT_NAMED 1963-04-11 15:00:00 TS -12.1748 136.231 main 0 0 P_____P__PP_P_ SH461963 -12.2225 136.050 -1 -12.1101 136.322 994 -12.1499 136.370 TC 40 994 -12.1863 136.060 2 -12.1575 136.535 TC 42 994 3 298
1963100S11137 1963 36 SP EA NOT_NAMED 1963-04-11 15:30:00 TS -12.1599 136.209 994 bom main 0 0 P_____O__PP_P_ SH461963 -12.2032 136.024 -1 -12.1000 136.300 994 -12.1389 136.352 TC 40 994 -12.1655 136.042 2 -12.1483 136.510 TC 42 994 3 309
1963100S11137 1963 36 SP EA NOT_NAMED 1963-04-11 18:00:00 TS -12.0785 136.108 main 15 15 O_____P__PP_O_ jtwc_sh SH461963 -12.1000 135.900 -1 -12.0344 136.230 994 -12.0811 136.269 TC 40 994 -12.0557 135.948 2 -12.1000 136.400 TC 45 994 3 312
1963100S11137 1963 36 SP EA NOT_NAMED 1963-04-11 21:00:00 TS -11.9897 136.012 main 24 15 P_____P__PP_P_ SH461963 -11.9774 135.822 -1 -11.9847 136.144 994 -12.0217 136.158 TC 40 994 -11.9419 135.812 2 -12.0350 136.315 TC 42 994 3 305
1963100S11137 1963 36 SP EA NOT_NAMED 1963-04-11 23:00:00 TS -11.9550 135.925 main 15 15 P_____P__PO_P_ SH461963 -11.9162 135.754 -1 -11.9914 136.037 994 -12.0013 136.060 TC 40 994 -11.9000 135.700 2 -12.0052 136.248 TC 40 994 3 289
1963100S11137 1963 36 SP EA NOT_NAMED 1963-04-11 23:30:00 TS -11.9518 135.897 994 bom main 15 15 P_____O__PP_P_ SH461963 -11.9066 135.729 -1 -12.0000 136.000 994 -11.9998 136.031 TC 40 994 -11.8963 135.666 2 -12.0016 136.225 TC 40 994 4 273
1963100S11137 1963 36 SP EA NOT_NAMED 1963-04-12 00:00:00 TS -11.9517 135.864 main 15 11 O_____P__OP_O_ jtwc_sh SH461963 -11.9000 135.700 -1 -12.0158 135.952 993 -12.0000 136.000 TC 40 994 -11.8943 135.630 2 -12.0000 136.200 TC 40 994 5 264
1963100S11137 1963 36 SP EA NOT_NAMED 1963-04-12 02:30:00 TS -11.9745 135.666 bom main 11 11 P_____I__PP_P_ SH461963 -11.8980 135.475 -1 -12.1000 135.700 989 -12.0238 135.856 TC 46 989 -11.9081 135.432 2 -12.0190 136.055 TC 40 994 5 263
1963100S11137 1963 36 SP EA NOT_NAMED 1963-04-12 03:00:00 TS -11.9814 135.624 main 11 11 P_____P__PP_P_ SH461963 -11.9051 135.422 -1 -12.1031 135.671 988 -12.0319 135.819 TC 47 989 -11.9160 135.390 2 -12.0274 136.017 TC 40 995 6 257
1963100S11137 1963 36 SP EA NOT_NAMED 1963-04-12 05:30:00 TS -12.0350 135.384 984 bom main 22 11 P_____O__PP_P_ SH461963 -11.9779 135.152 -1 -12.1000 135.500 984 4 -12.0865 135.568 TC 53 984 -11.9821 135.170 2 -12.0858 135.765 TC 40 995 6 256
1963100S11137 1963 36 SP EA NOT_NAMED 1963-04-12 06:00:00 TS -12.0520 135.325 main 11 11 O_____P__OP_O_ jtwc_sh SH461963 -12.0000 135.100 -1 -12.1110 135.423 984 -12.1000 135.500 TC 55 984 -12.0009 135.126 2 -12.1000 135.700 TC 40 996 9 255
1963100S11137 1963 36 SI WA NOT_NAMED 1963-04-12 08:30:00 TS -12.1441 134.965 986 bom main 11 0 P_____O__PP_P_ SH461963 -12.1163 134.870 -1 -12.2000 134.900 986 -12.1580 135.012 TC 52 985 -12.1245 134.905 2 -12.1493 135.230 TC 46 992 9 255
1963100S11137 1963 36 SI WA NOT_NAMED 1963-04-12 09:00:00 TS -12.1668 134.890 main 0 0 P_____P__PP_P_ SH461963 -12.1475 134.827 -1 -12.2147 134.794 986 -12.1728 134.903 TC 52 986 -12.1553 134.863 2 -12.1629 135.128 TC 47 991 9 249
1963100S11137 1963 36 SI WA NOT_NAMED 1963-04-12 11:00:00 TS -12.2791 134.609 main 0 0 P_____P__PO_P_ SH461963 -12.3026 134.669 -1 -12.2790 134.388 987 -12.2489 134.481 TC 50 987 -12.3000 134.700 1 -12.2414 134.748 TC 52 988 9 246
1963100S11137 1963 36 SI WA NOT_NAMED 1963-04-12 11:30:00 TS -12.3146 134.548 988 bom main 0 0 P_____O__PP_P_ SH461963 -12.3496 134.634 -1 -12.3000 134.300 988 -12.2732 134.387 TC 50 987 -12.3467 134.666 1 -12.2688 134.669 TC 53 987 8 237
1963100S11137 1963 36 SI WA NOT_NAMED 1963-04-12 12:00:00 TS -12.3539 134.493 main 0 0 O_____P__OP_O_ jtwc_sh SH461963 -12.4000 134.600 -1 -12.3270 134.228 988 -12.3000 134.300 TC 50 988 -12.3966 134.633 1 -12.3000 134.600 TC 55 987 7 214
1963100S11137 1963 36 SI WA NOT_NAMED 1963-04-12 15:00:00 TS -12.6662 134.302 main 0 0 P_____P__PP_P_ SH461963 -12.7924 134.442 -1 -12.5617 133.993 990 -12.5338 134.062 TC 46 990 -12.7472 134.449 1 -12.5698 134.425 TC 47 989 7 202
1963100S11137 1963 36 SI WA NOT_NAMED 1963-04-12 18:00:00 TS -13.0270 134.217 main 0 0 O_____P__PP_O_ jtwc_sh SH461963 -13.2000 134.300 -1 -12.8812 133.989 992 -12.8431 134.031 TC 42 992 -13.1380 134.280 1 -12.9000 134.400 TC 40 991 7 193
1963100S11137 1963 36 SI WA NOT_NAMED 1963-04-12 21:00:00 TS -13.3518 134.140 main 0 0 P_____P__PP_P_ SH461963 -13.4950 134.107 -1 -13.2292 134.072 994 -13.1809 134.084 TC 38 994 -13.5032 134.115 1 -13.2075 134.357 TC 37 993 6 195
1963100S11137 1963 36 SI WA NOT_NAMED 1963-04-12 23:00:00 TS -13.5394 134.079 main 0 0 P_____P__PO_P_ SH461963 -13.6417 133.969 -1 -13.4490 134.102 995 -13.3986 134.106 TC 36 995 -13.7000 134.000 2 -13.4057 134.325 TC 35 994 6 199
1963100S11137 1963 36 SI WA NOT_NAMED 1963-04-12 23:30:00 TS -13.5800 134.059 996 bom main 0 0 P_____O__PP_P_ SH461963 -13.6721 133.935 -1 -13.5000 134.100 996 -13.4501 134.105 TC 35 995 -13.7324 133.968 2 -13.4533 134.314 TC 35 994 5 207
1963100S11137 1963 36 SI WA NOT_NAMED 1963-04-13 00:00:00 TS -13.6182 134.036 main 0 0 O_____P__OP_O_ jtwc_sh SH461963 -13.7000 133.900 -1 -13.5472 134.080 996 -13.5000 134.100 TC 35 996 -13.7619 133.937 2 -13.5000 134.300 TC 35 995 5 218
1963100S11137 1963 36 SI WA NOT_NAMED 1963-04-13 03:00:00 TS -13.8203 133.868 main 0 0 P_____P__PP_P_ SH461963 -13.8300 133.700 -1 -13.8148 133.937 997 -13.7729 133.963 TC 35 997 -13.8869 133.741 2 -13.7875 134.165 TC 32 996 5 224
1963100S11137 1963 36 SI WA NOT_NAMED 1963-04-13 05:30:00 TS -13.9435 133.716 998 bom main 0 0 P_____O__PP_P_ SH461963 -13.8904 133.533 -1 -14.0000 133.800 998 -13.9668 133.828 TC 35 997 -13.9406 133.573 2 -13.9730 134.027 TC 30 996 5 231
1963100S11137 1963 36 SI WA NOT_NAMED 1963-04-13 06:00:00 TS -13.9625 133.687 main 0 0 O_____P__OP_O_ jtwc_sh SH461963 -13.9000 133.500 -1 -14.0271 133.780 -14.0000 133.800 TC 35 998 -13.9477 133.540 2 -14.0000 134.000 TC 30 997 4 244
1963100S11137 1963 36 SI WA NOT_NAMED 1963-04-13 09:00:00 TS -14.0366 133.522 main 0 0 P_____P__PP_P_ SH461963 -13.9500 133.300 -1 -14.1304 133.673 -14.1228 133.673 TC -13.9788 133.336 2 -14.0875 133.850 TC 30 997 3 249
1963100S11137 1963 36 SI WA NOT_NAMED 1963-04-13 11:00:00 TS -14.0622 133.414 main 0 0 P_____P__PO_P_ SH461963 -13.9802 133.167 -1 -14.1551 133.608 -14.1580 133.593 TC -14.0000 133.200 1 -14.0995 133.750 TC 30 997 3 257
1963100S11137 1963 36 SI WA NOT_NAMED 1963-04-13 12:00:00 TS -14.0743 133.359 main 0 0 O_____P__PP_O_ jtwc_sh SH461963 -14.0000 133.100 -1 -14.1581 133.574 -14.1652 133.553 TC -14.0226 133.126 1 -14.1000 133.700 TC 30 997 3 256
1963100S11137 1963 36 SI WA NOT_NAMED 1963-04-13 15:00:00 TS -14.1159 133.189 main 0 0 P_____P__PP_P_ SH461963 -14.1000 132.900 -1 -14.1456 133.457 -14.1608 133.422 TC -14.0892 132.901 1 -14.1000 133.557 TC 30 997 4 257
1963100S11137 1963 36 SI WA NOT_NAMED 1963-04-13 18:00:00 TS -14.1550 133.008 main 0 0 O_____P__PP_O_ jtwc_sh SH461963 -14.2000 132.700 -1 -14.1281 133.296 -14.1429 133.264 TC -14.1592 132.686 1 -14.1000 133.400 TC 30 997 4 259
1963100S11137 1963 36 SI WA NOT_NAMED 1963-04-13 21:00:00 TS -14.1895 132.803 main 0 0 P_____P__PP_P_ SH461963 -14.2425 132.477 -1 -14.1409 133.065 -14.1449 133.062 TC -14.2386 132.499 1 -14.1274 133.237 TC 30 997 4 258
1963100S11137 1963 36 SI WA NOT_NAMED 1963-04-13 23:00:00 TS -14.2293 132.658 main 0 0 P_____P__PO_P_ SH461963 -14.2746 132.350 -1 -14.1836 132.859 -14.1737 132.895 TC -14.3000 132.400 1 -14.1692 133.092 TC 30 997 4 253
1963100S11137 1963 36 SI WA NOT_NAMED 1963-04-13 23:30:00 TS -14.2439 132.620 997 bom main 0 0 P_____O__PP_P_ SH461963 -14.2862 132.323 -1 -14.2000 132.800 997 -14.1857 132.849 TC -14.3213 132.375 1 -14.1837 133.048 TC 30 997 5 249
1963100S11137 1963 36 SI WA NOT_NAMED 1963-04-14 00:00:00 TS -14.2616 132.579 main 0 0 O_____P__OP_O_ jtwc_sh SH461963 -14.3000 132.300 -1 -14.2262 132.723 -14.2000 132.800 TC 35 997 -14.3435 132.351 1 -14.2000 133.000 TC 30 997 6 240
1963100S11137 1963 36 SI WA NOT_NAMED 1963-04-14 03:00:00 TS -14.4132 132.316 main 0 0 P_____P__PP_P_ SH461963 -14.4425 132.220 -1 -14.3978 132.245 -14.3286 132.470 TC -14.4887 132.232 1 -14.3578 132.548 TC 27 997 6 236
1963100S11137 1963 36 SI WA NOT_NAMED 1963-04-14 05:00:00 TS -14.5219 132.178 bom main 0 0 P_____O__PP_P_ SH461963 -14.5505 132.203 -1 -14.5000 132.000 -14.4408 132.225 TC -14.5873 132.180 1 -14.4620 132.281 TC 25 997 5 228
1963100S11137 1963 36 SI WA NOT_NAMED 1963-04-14 06:00:00 TS -14.5712 132.136 main 0 0 O_____P__OP_O_ jtwc_sh SH461963 -14.6000 132.200 -1 -14.5397 131.927 -14.5000 132.100 TC -14.6340 132.164 1 -14.5000 132.200 TC 25 997 2 195
1963100S11137 1963 36 SI WA NOT_NAMED 1963-04-14 09:00:00 TS -14.6648 132.132 main 0 0 P_____P___P_P_ SH461963 -14.7225 132.170 -1 -14.6128 131.900 TC -14.7513 132.160 1 -14.5149 132.260 TC 25 997 2 159
1963100S11137 1963 36 SI WA NOT_NAMED 1963-04-14 11:00:00 TS -14.6988 132.198 main 0 0 P_____P___O_P_ SH461963 -14.7807 132.180 -1 -14.6306 132.013 TC -14.8000 132.200 1 -14.5021 132.415 TC 25 997 3 113
1963100S11137 1963 36 SI WA NOT_NAMED 1963-04-14 12:00:00 TS -14.7131 132.254 main 0 0 O_____P___P_O_ jtwc_sh SH461963 -14.8000 132.200 -1 -14.6325 132.099 -14.8127 132.234 1 -14.5000 132.500 TC 25 998 3 98
1963100S11137 1963 36 SI WA NOT_NAMED 1963-04-14 15:00:00 TS -14.7314 132.433 main 0 0 P_____P___P_P_ SH461963 -14.8175 132.323 -1 -14.6184 132.438 -14.8077 132.383 1 -14.5325 132.717 TC 22 998 4 94
1963100S11137 1963 36 SI WA NOT_NAMED 1963-04-14 17:00:00 TS -14.7349 132.563 998 bom main 0 0 P_____O___P_P_ SH461963 -14.8076 132.438 -1 -14.6000 132.700 998 -14.7754 132.515 1 -14.5758 132.841 TC 20 998 3 94
1963100S11137 1963 36 SI WA NOT_NAMED 1963-04-14 18:00:00 TS -14.7430 132.611 main 0 0 O_________P_O_ jtwc_sh SH461963 -14.8000 132.500 -1 -14.7526 132.589 1 -14.6000 132.900 TC 20 998 4 75
1963100S11137 1963 36 SI WA NOT_NAMED 1963-04-14 21:00:00 NR -14.6660 132.830 main 0 0 __________P___ SH461963 -1 -14.6660 132.830 1 TC 5 69
1963100S11137 1963 36 SI WA NOT_NAMED 1963-04-14 23:00:00 NR -14.6000 133.000 main 0 __________O___ SH461963 -1 -14.6000 133.000 1 TC 5 68

Digital Typhoon Data and Search

About IBTrACS Database

This database is a web-friendly format of International Best Track Archive for Climate Stewardship (IBTrACS), a global best track data archive curated by NOAA dating back to 1842.

Updated: 2021-11-26